sensor_id;sensor_type;location;lat;lon;timestamp;temperature;humidity
49821;DHT22;36893;52.520;13.450;2023-05-10T00:09:41;23.80;53.20
49821;DHT22;36893;52.520;13.450;2023-05-10T00:19:42;23.70;53.20
49821;DHT22;36893;52.520;13.450;2023-05-10T00:29:42;23.70;53.20
49821;DHT22;36893;52.520;13.450;2023-05-10T00:39:43;23.70;53.20
49821;DHT22;36893;52.520;13.450;2023-05-10T00:49:44;23.70;53.20
49821;DHT22;36893;52.520;13.450;2023-05-10T00:59:45;23.70;53.30
49821;DHT22;36893;52.520;13.450;2023-05-10T01:09:46;23.60;53.40
49821;DHT22;36893;52.520;13.450;2023-05-10T01:19:47;23.70;53.40
49821;DHT22;36893;52.520;13.450;2023-05-10T01:30:16;23.60;53.30
49821;DHT22;36893;52.520;13.450;2023-05-10T01:40:42;23.60;53.40
49821;DHT22;36893;52.520;13.450;2023-05-10T01:50:48;23.60;53.40
49821;DHT22;36893;52.520;13.450;2023-05-10T02:00:50;23.60;53.50
49821;DHT22;36893;52.520;13.450;2023-05-10T02:10:55;23.60;53.50
49821;DHT22;36893;52.520;13.450;2023-05-10T02:20:58;23.60;53.50
49821;DHT22;36893;52.520;13.450;2023-05-10T02:30:59;23.60;53.50
49821;DHT22;36893;52.520;13.450;2023-05-10T02:41:01;23.50;53.40
49821;DHT22;36893;52.520;13.450;2023-05-10T02:51:05;23.50;53.50
49821;DHT22;36893;52.520;13.450;2023-05-10T03:01:07;23.60;53.50
49821;DHT22;36893;52.520;13.450;2023-05-10T03:21:45;23.60;53.60
49821;DHT22;36893;52.520;13.450;2023-05-10T03:31:48;23.60;53.70
49821;DHT22;36893;52.520;13.450;2023-05-10T03:41:48;23.50;53.60
49821;DHT22;36893;52.520;13.450;2023-05-10T03:51:49;23.50;53.60
49821;DHT22;36893;52.520;13.450;2023-05-10T04:01:50;23.50;53.60
49821;DHT22;36893;52.520;13.450;2023-05-10T04:11:50;23.50;53.60
49821;DHT22;36893;52.520;13.450;2023-05-10T04:21:51;23.50;53.60
49821;DHT22;36893;52.520;13.450;2023-05-10T04:31:52;23.50;53.70
49821;DHT22;36893;52.520;13.450;2023-05-10T04:41:53;23.50;53.70
49821;DHT22;36893;52.520;13.450;2023-05-10T04:51:54;23.50;53.70
49821;DHT22;36893;52.520;13.450;2023-05-10T05:01:54;23.50;53.60
49821;DHT22;36893;52.520;13.450;2023-05-10T05:11:55;23.50;53.70
49821;DHT22;36893;52.520;13.450;2023-05-10T05:21:56;23.50;53.70
49821;DHT22;36893;52.520;13.450;2023-05-10T05:31:56;23.50;53.70
49821;DHT22;36893;52.520;13.450;2023-05-10T05:41:57;23.50;53.80
49821;DHT22;36893;52.520;13.450;2023-05-10T05:51:59;23.60;53.90
49821;DHT22;36893;52.520;13.450;2023-05-10T06:02:03;23.60;53.90
49821;DHT22;36893;52.520;13.450;2023-05-10T06:12:04;23.60;53.90
49821;DHT22;36893;52.520;13.450;2023-05-10T06:22:05;23.60;54.00
49821;DHT22;36893;52.520;13.450;2023-05-10T06:32:05;23.70;54.10
49821;DHT22;36893;52.520;13.450;2023-05-10T06:42:06;23.70;54.20
49821;DHT22;36893;52.520;13.450;2023-05-10T06:52:07;23.70;54.20
49821;DHT22;36893;52.520;13.450;2023-05-10T07:02:07;23.80;54.50
49821;DHT22;36893;52.520;13.450;2023-05-10T07:12:08;23.80;54.90
49821;DHT22;36893;52.520;13.450;2023-05-10T07:22:09;23.80;55.30
49821;DHT22;36893;52.520;13.450;2023-05-10T07:32:09;23.80;55.50
49821;DHT22;36893;52.520;13.450;2023-05-10T07:42:10;23.90;55.70
49821;DHT22;36893;52.520;13.450;2023-05-10T07:52:11;23.90;55.70
49821;DHT22;36893;52.520;13.450;2023-05-10T08:02:12;23.90;55.80
49821;DHT22;36893;52.520;13.450;2023-05-10T08:12:12;23.90;56.00
49821;DHT22;36893;52.520;13.450;2023-05-10T08:22:13;23.90;56.00
49821;DHT22;36893;52.520;13.450;2023-05-10T08:32:13;24.00;56.20
49821;DHT22;36893;52.520;13.450;2023-05-10T08:42:18;24.00;56.40
49821;DHT22;36893;52.520;13.450;2023-05-10T08:52:21;24.10;56.30
49821;DHT22;36893;52.520;13.450;2023-05-10T09:02:24;24.10;56.30
49821;DHT22;36893;52.520;13.450;2023-05-10T09:12:25;24.10;56.20
49821;DHT22;36893;52.520;13.450;2023-05-10T09:22:26;24.20;56.20
49821;DHT22;36893;52.520;13.450;2023-05-10T09:32:38;24.20;56.20
49821;DHT22;36893;52.520;13.450;2023-05-10T09:42:56;24.20;56.20
49821;DHT22;36893;52.520;13.450;2023-05-10T09:52:59;24.30;56.20
49821;DHT22;36893;52.520;13.450;2023-05-10T10:03:01;24.30;56.20
49821;DHT22;36893;52.520;13.450;2023-05-10T10:13:03;24.30;56.10
49821;DHT22;36893;52.520;13.450;2023-05-10T10:23:05;24.40;56.10
49821;DHT22;36893;52.520;13.450;2023-05-10T10:33:33;24.40;56.00
49821;DHT22;36893;52.520;13.450;2023-05-10T10:43:40;24.50;56.00
49821;DHT22;36893;52.520;13.450;2023-05-10T10:53:41;24.50;55.90
49821;DHT22;36893;52.520;13.450;2023-05-10T11:14:05;24.60;55.80
49821;DHT22;36893;52.520;13.450;2023-05-10T11:24:13;24.50;55.70
49821;DHT22;36893;52.520;13.450;2023-05-10T11:34:26;24.50;55.70
49821;DHT22;36893;52.520;13.450;2023-05-10T11:44:31;24.50;55.60
49821;DHT22;36893;52.520;13.450;2023-05-10T11:54:32;24.60;55.60
49821;DHT22;36893;52.520;13.450;2023-05-10T12:04:35;24.60;55.60
49821;DHT22;36893;52.520;13.450;2023-05-10T12:14:35;24.60;55.70
49821;DHT22;36893;52.520;13.450;2023-05-10T12:24:37;24.60;55.70
49821;DHT22;36893;52.520;13.450;2023-05-10T12:34:40;24.60;55.70
49821;DHT22;36893;52.520;13.450;2023-05-10T12:44:41;24.70;55.80
49821;DHT22;36893;52.520;13.450;2023-05-10T12:54:42;24.70;55.80
49821;DHT22;36893;52.520;13.450;2023-05-10T13:04:42;24.70;55.90
49821;DHT22;36893;52.520;13.450;2023-05-10T13:14:43;24.70;55.90
49821;DHT22;36893;52.520;13.450;2023-05-10T13:24:43;24.70;55.90
49821;DHT22;36893;52.520;13.450;2023-05-10T13:34:44;24.70;55.90
49821;DHT22;36893;52.520;13.450;2023-05-10T13:44:45;24.70;56.00
49821;DHT22;36893;52.520;13.450;2023-05-10T13:54:45;24.70;56.00
49821;DHT22;36893;52.520;13.450;2023-05-10T14:04:46;24.70;56.70
49821;DHT22;36893;52.520;13.450;2023-05-10T14:14:47;24.70;56.00
49821;DHT22;36893;52.520;13.450;2023-05-10T14:24:48;24.80;56.00
49821;DHT22;36893;52.520;13.450;2023-05-10T14:34:48;24.70;55.90
49821;DHT22;36893;52.520;13.450;2023-05-10T14:44:49;24.80;55.90
49821;DHT22;36893;52.520;13.450;2023-05-10T14:54:49;24.80;55.90
49821;DHT22;36893;52.520;13.450;2023-05-10T15:04:50;24.80;55.90
49821;DHT22;36893;52.520;13.450;2023-05-10T15:14:51;24.80;56.00
49821;DHT22;36893;52.520;13.450;2023-05-10T15:24:51;24.80;56.00
49821;DHT22;36893;52.520;13.450;2023-05-10T15:34:52;24.80;55.90
49821;DHT22;36893;52.520;13.450;2023-05-10T15:44:53;24.90;56.00
49821;DHT22;36893;52.520;13.450;2023-05-10T15:54:53;24.90;56.00
49821;DHT22;36893;52.520;13.450;2023-05-10T16:04:54;24.90;56.00
49821;DHT22;36893;52.520;13.450;2023-05-10T16:14:55;24.90;56.00
49821;DHT22;36893;52.520;13.450;2023-05-10T16:24:56;24.90;56.00
49821;DHT22;36893;52.520;13.450;2023-05-10T16:34:57;24.90;56.10
49821;DHT22;36893;52.520;13.450;2023-05-10T16:44:58;24.90;56.00
49821;DHT22;36893;52.520;13.450;2023-05-10T16:55:06;24.90;56.00
49821;DHT22;36893;52.520;13.450;2023-05-10T17:05:08;24.90;56.00
49821;DHT22;36893;52.520;13.450;2023-05-10T17:15:09;24.90;56.00
49821;DHT22;36893;52.520;13.450;2023-05-10T17:25:10;24.90;56.00
49821;DHT22;36893;52.520;13.450;2023-05-10T17:35:11;24.90;56.70
49821;DHT22;36893;52.520;13.450;2023-05-10T17:45:12;24.90;56.10
49821;DHT22;36893;52.520;13.450;2023-05-10T17:55:12;24.90;56.10
49821;DHT22;36893;52.520;13.450;2023-05-10T18:05:13;24.90;56.10
49821;DHT22;36893;52.520;13.450;2023-05-10T18:15:14;24.90;56.10
49821;DHT22;36893;52.520;13.450;2023-05-10T18:25:14;24.90;56.20
49821;DHT22;36893;52.520;13.450;2023-05-10T18:35:15;24.90;56.20
49821;DHT22;36893;52.520;13.450;2023-05-10T18:45:16;24.90;56.30
49821;DHT22;36893;52.520;13.450;2023-05-10T18:55:17;24.90;56.40
49821;DHT22;36893;52.520;13.450;2023-05-10T19:05:17;24.90;56.40
49821;DHT22;36893;52.520;13.450;2023-05-10T19:15:18;24.90;56.40
49821;DHT22;36893;52.520;13.450;2023-05-10T19:25:19;24.90;56.40
49821;DHT22;36893;52.520;13.450;2023-05-10T19:35:20;24.90;57.00
49821;DHT22;36893;52.520;13.450;2023-05-10T19:45:21;24.90;56.40
49821;DHT22;36893;52.520;13.450;2023-05-10T19:55:29;24.90;56.50
49821;DHT22;36893;52.520;13.450;2023-05-10T20:05:31;24.80;56.40
49821;DHT22;36893;52.520;13.450;2023-05-10T20:15:32;24.90;56.40
49821;DHT22;36893;52.520;13.450;2023-05-10T20:25:32;24.90;56.50
49821;DHT22;36893;52.520;13.450;2023-05-10T20:35:33;24.90;56.50
49821;DHT22;36893;52.520;13.450;2023-05-10T20:45:35;24.90;56.50
49821;DHT22;36893;52.520;13.450;2023-05-10T20:55:36;24.90;56.50
49821;DHT22;36893;52.520;13.450;2023-05-10T21:05:37;24.90;56.50
49821;DHT22;36893;52.520;13.450;2023-05-10T21:15:38;24.90;56.50
49821;DHT22;36893;52.520;13.450;2023-05-10T21:25:38;24.90;56.50
49821;DHT22;36893;52.520;13.450;2023-05-10T21:35:39;24.90;56.50
49821;DHT22;36893;52.520;13.450;2023-05-10T21:45:41;24.80;56.40
49821;DHT22;36893;52.520;13.450;2023-05-10T21:55:42;24.80;56.40
49821;DHT22;36893;52.520;13.450;2023-05-10T22:05:43;24.80;56.40
49821;DHT22;36893;52.520;13.450;2023-05-10T22:15:43;24.80;56.40
49821;DHT22;36893;52.520;13.450;2023-05-10T22:25:44;24.80;56.40
49821;DHT22;36893;52.520;13.450;2023-05-10T22:35:45;24.80;56.40
49821;DHT22;36893;52.520;13.450;2023-05-10T22:45:45;24.80;56.40
49821;DHT22;36893;52.520;13.450;2023-05-10T22:55:46;24.80;56.40
49821;DHT22;36893;52.520;13.450;2023-05-10T23:05:47;24.80;56.40
49821;DHT22;36893;52.520;13.450;2023-05-10T23:15:47;24.80;56.50
49821;DHT22;36893;52.520;13.450;2023-05-10T23:25:48;24.80;56.40
49821;DHT22;36893;52.520;13.450;2023-05-10T23:35:49;24.80;56.50
49821;DHT22;36893;52.520;13.450;2023-05-10T23:45:54;24.80;56.40
49821;DHT22;36893;52.520;13.450;2023-05-10T23:55:55;24.80;56.50
